Time;durP1;ratioP1;P1;durP2;ratioP2;P2;SDS_P1;SDS_P2;PMS_P1;PMS_P2;Temp;Humidity;BMP_temperature;BMP_pressure;BME280_temperature;BME280_humidity;BME280_pressure;Samples;Min_cycle;Max_cycle;Signal;HPM_P1;HPM_P2
2021/08/28 00:01:23;;;;;;;0.40;0.40;;;14.30;99.90;;;;;;5035600;28;20443;-82
2021/08/28 00:03:50;;;;;;;0.40;0.30;;;14.30;99.90;;;;;;5034798;28;20989;-82
2021/08/28 00:06:16;;;;;;;0.57;0.40;;;14.30;99.90;;;;;;5034853;28;20832;-81
2021/08/28 00:08:43;;;;;;;0.40;0.37;;;14.30;99.90;;;;;;5034745;28;20458;-81
2021/08/28 00:11:10;;;;;;;0.57;0.57;;;14.20;99.90;;;;;;5034925;28;20462;-81
2021/08/28 00:13:37;;;;;;;0.50;0.40;;;14.10;99.90;;;;;;5034707;28;20482;-81
2021/08/28 00:16:04;;;;;;;0.37;0.37;;;14.10;99.90;;;;;;5034564;28;20498;-81
2021/08/28 00:18:32;;;;;;;0.40;0.40;;;14.00;99.90;;;;;;5034823;28;20455;-81
2021/08/28 00:20:59;;;;;;;0.40;0.30;;;14.00;99.90;;;;;;5034855;28;20446;-81
2021/08/28 00:23:26;;;;;;;1.03;0.30;;;13.90;99.90;;;;;;5034492;28;20999;-81
2021/08/28 00:25:53;;;;;;;2.10;0.40;;;13.90;99.90;;;;;;5034521;28;21011;-81
2021/08/28 00:28:20;;;;;;;0.30;0.30;;;13.90;99.90;;;;;;5034671;28;20457;-82
2021/08/28 00:30:47;;;;;;;0.50;0.40;;;13.90;99.90;;;;;;5034389;28;20973;-81
2021/08/28 00:33:16;;;;;;;0.40;0.40;;;13.90;99.90;;;;;;5034472;28;20475;-81
2021/08/28 00:35:44;;;;;;;0.40;0.30;;;13.80;99.90;;;;;;5034537;28;20493;-81
2021/08/28 00:38:11;;;;;;;0.50;0.40;;;13.80;99.90;;;;;;5034415;28;20461;-82
2021/08/28 00:40:39;;;;;;;0.50;0.40;;;13.90;99.90;;;;;;5034167;28;20453;-82
2021/08/28 00:43:06;;;;;;;0.40;0.30;;;13.80;99.90;;;;;;5034043;28;20552;-82
2021/08/28 00:45:34;;;;;;;0.40;0.40;;;13.80;99.90;;;;;;5033960;28;20985;-81
2021/08/28 00:48:03;;;;;;;0.67;0.50;;;13.80;99.90;;;;;;5034390;28;20457;-81
2021/08/28 00:50:30;;;;;;;0.60;0.60;;;13.90;99.90;;;;;;5034017;28;20977;-81
2021/08/28 00:52:58;;;;;;;0.40;0.40;;;13.80;99.90;;;;;;5034125;28;20462;-81
2021/08/28 00:55:26;;;;;;;0.70;0.50;;;13.80;99.90;;;;;;5034462;28;20487;-81
2021/08/28 00:57:54;;;;;;;0.50;0.40;;;13.90;99.90;;;;;;5033826;28;20965;-81
2021/08/28 01:00:21;;;;;;;0.60;0.50;;;13.90;99.90;;;;;;5033976;28;20446;-81
2021/08/28 01:02:50;;;;;;;0.40;0.40;;;13.90;99.90;;;;;;5034021;28;20473;-81
2021/08/28 01:05:21;;;;;;;0.60;0.40;;;13.90;99.90;;;;;;5033306;28;20447;-81
2021/08/28 01:07:58;;;;;;;0.40;0.33;;;13.90;99.90;;;;;;5033776;28;20906;-81
2021/08/28 01:10:34;;;;;;;0.40;0.40;;;13.90;99.90;;;;;;5034301;28;20827;-81
2021/08/28 01:13:02;;;;;;;0.73;0.50;;;13.90;99.90;;;;;;5033624;28;20995;-81
2021/08/28 01:15:30;;;;;;;0.40;0.40;;;13.90;99.90;;;;;;5033830;28;20488;-81
2021/08/28 01:17:58;;;;;;;0.40;0.37;;;13.90;99.90;;;;;;5034431;28;20450;-81
2021/08/28 01:20:37;;;;;;;0.90;0.50;;;13.90;99.90;;;;;;5033806;28;20450;-81
2021/08/28 01:23:05;;;;;;;0.90;0.40;;;13.90;99.90;;;;;;5033755;28;20458;-81
2021/08/28 01:25:34;;;;;;;0.60;0.40;;;13.90;99.90;;;;;;5033413;28;20443;-81
2021/08/28 01:28:04;;;;;;;0.30;0.30;;;13.90;99.90;;;;;;5033399;28;20445;-81
2021/08/28 01:30:34;;;;;;;1.53;0.67;;;13.90;99.90;;;;;;5034385;28;20437;-79
2021/08/28 01:33:02;;;;;;;0.40;0.30;;;13.90;99.90;;;;;;5033487;28;20474;-78
2021/08/28 01:35:30;;;;;;;0.40;0.40;;;13.90;99.90;;;;;;5033195;28;20482;-78
2021/08/28 01:37:58;;;;;;;0.37;0.30;;;13.90;99.90;;;;;;5033588;28;20504;-78
2021/08/28 01:40:28;;;;;;;0.60;0.50;;;13.90;99.90;;;;;;5033087;28;20451;-78
2021/08/28 01:42:56;;;;;;;0.43;0.43;;;14.00;99.90;;;;;;5033380;28;20481;-78
2021/08/28 01:45:24;;;;;;;0.80;0.43;;;13.90;99.90;;;;;;5033057;28;20997;-78
2021/08/28 01:47:53;;;;;;;0.40;0.40;;;13.90;99.90;;;;;;5033463;28;20447;-78
2021/08/28 01:50:22;;;;;;;1.17;0.67;;;13.90;99.90;;;;;;5033681;28;20439;-79
2021/08/28 01:52:50;;;;;;;0.50;0.37;;;13.90;99.90;;;;;;5033282;28;20466;-78
2021/08/28 01:55:18;;;;;;;0.60;0.50;;;14.00;99.90;;;;;;5033009;28;20497;-78
2021/08/28 01:57:45;;;;;;;0.40;0.40;;;13.90;99.90;;;;;;5033002;28;20455;-78
2021/08/28 02:00:13;;;;;;;0.40;0.40;;;14.00;99.90;;;;;;5033255;28;20446;-78
2021/08/28 02:02:39;;;;;;;1.90;1.30;;;13.90;99.90;;;;;;5033183;28;20825;-78
2021/08/28 02:05:11;;;;;;;0.40;0.40;;;13.90;99.90;;;;;;5032999;28;20450;-78
2021/08/28 02:07:50;;;;;;;1.60;0.60;;;13.90;99.90;;;;;;5033397;28;20497;-78
2021/08/28 02:10:22;;;;;;;0.50;0.47;;;13.90;99.90;;;;;;5033142;28;20447;-78
2021/08/28 02:12:53;;;;;;;2.10;0.60;;;13.90;99.90;;;;;;5033135;28;20946;-78
2021/08/28 02:15:25;;;;;;;0.50;0.50;;;13.90;99.90;;;;;;5032699;28;20497;-85
2021/08/28 02:17:59;;;;;;;0.83;0.73;;;13.80;99.90;;;;;;5037124;28;20906;-85
2021/08/28 02:20:34;;;;;;;0.90;0.70;;;14.00;99.90;;;;;;5037599;28;20449;-86
2021/08/28 02:23:05;;;;;;;0.60;0.60;;;13.90;99.90;;;;;;5037456;28;20474;-85
2021/08/28 02:25:39;;;;;;;0.83;0.67;;;13.90;99.90;;;;;;5037439;28;20427;-85
2021/08/28 02:28:10;;;;;;;5.30;0.60;;;13.90;99.90;;;;;;5037301;28;20792;-86
2021/08/28 02:30:37;;;;;;;0.60;0.60;;;13.90;99.90;;;;;;5037791;28;20443;-85
2021/08/28 02:33:08;;;;;;;0.70;0.70;;;13.80;99.90;;;;;;5037184;28;20481;-86
2021/08/28 02:35:37;;;;;;;0.80;0.73;;;13.80;99.90;;;;;;5037037;28;20470;-86
2021/08/28 02:38:05;;;;;;;0.60;0.50;;;13.90;99.90;;;;;;5037128;28;20458;-86
2021/08/28 02:40:33;;;;;;;0.53;0.53;;;13.90;99.90;;;;;;5036830;28;20442;-85
2021/08/28 02:43:00;;;;;;;1.40;0.30;;;13.80;99.90;;;;;;5036944;28;20480;-86
2021/08/28 02:45:28;;;;;;;0.63;0.40;;;13.80;99.90;;;;;;5036970;28;20439;-86
2021/08/28 02:47:55;;;;;;;1.43;0.50;;;13.80;99.90;;;;;;5036984;28;20458;-85
2021/08/28 02:50:25;;;;;;;0.50;0.50;;;13.80;99.90;;;;;;5036840;28;20778;-86
2021/08/28 02:52:54;;;;;;;0.60;0.60;;;13.80;99.90;;;;;;5036913;28;20890;-86
2021/08/28 02:55:21;;;;;;;0.50;0.50;;;13.80;99.90;;;;;;5036838;28;20482;-86
2021/08/28 02:57:52;;;;;;;0.40;0.40;;;13.80;99.90;;;;;;5036559;28;20435;-86
2021/08/28 03:00:20;;;;;;;0.40;0.40;;;13.80;99.90;;;;;;5037450;28;20451;-86
2021/08/28 03:02:48;;;;;;;0.60;0.43;;;13.70;99.90;;;;;;5036590;28;20827;-86
2021/08/28 03:05:18;;;;;;;0.70;0.40;;;13.70;99.90;;;;;;5036531;28;20442;-86
2021/08/28 03:07:45;;;;;;;0.60;0.47;;;13.70;99.90;;;;;;5036602;28;20799;-86
2021/08/28 03:10:15;;;;;;;0.60;0.60;;;13.70;99.90;;;;;;5036405;28;20446;-86
2021/08/28 03:12:42;;;;;;;0.70;0.50;;;13.70;99.90;;;;;;5036334;28;20504;-86
2021/08/28 03:15:11;;;;;;;0.50;0.40;;;13.70;99.90;;;;;;5036091;28;20486;-86
2021/08/28 03:17:39;;;;;;;0.40;0.37;;;13.70;99.90;;;;;;5036489;28;20450;-86
2021/08/28 03:20:10;;;;;;;0.40;0.40;;;13.70;99.90;;;;;;5036346;28;20439;-86
2021/08/28 03:22:39;;;;;;;0.60;0.40;;;13.70;99.90;;;;;;5036507;28;20858;-86
2021/08/28 03:25:09;;;;;;;0.37;0.37;;;13.80;99.90;;;;;;5036286;28;20450;-86
2021/08/28 03:27:40;;;;;;;0.40;0.40;;;13.70;99.90;;;;;;5035424;28;20435;-86
2021/08/28 03:30:08;;;;;;;1.97;0.53;;;13.70;99.90;;;;;;5036114;28;20883;-86
2021/08/28 03:32:36;;;;;;;2.00;1.87;;;13.80;99.90;;;;;;5036167;28;20484;-86
2021/08/28 03:35:04;;;;;;;0.60;0.53;;;13.80;99.90;;;;;;5035903;28;20442;-86
2021/08/28 03:37:32;;;;;;;0.50;0.50;;;13.80;99.90;;;;;;5036118;28;20435;-86
2021/08/28 03:39:59;;;;;;;2.20;0.93;;;13.80;99.90;;;;;;5035824;28;20423;-86
2021/08/28 03:42:26;;;;;;;0.77;0.77;;;13.80;99.90;;;;;;5035720;28;20446;-86
2021/08/28 03:44:57;;;;;;;0.60;0.43;;;13.70;99.90;;;;;;5036036;28;20446;-86
2021/08/28 03:47:24;;;;;;;1.23;0.80;;;13.70;99.90;;;;;;5035899;28;20433;-86
2021/08/28 03:49:51;;;;;;;0.63;0.50;;;13.70;99.90;;;;;;5035829;28;20831;-86
2021/08/28 03:52:17;;;;;;;1.27;0.80;;;13.70;99.90;;;;;;5035482;28;20438;-86
2021/08/28 03:54:44;;;;;;;0.93;0.70;;;13.70;99.90;;;;;;5035712;28;20466;-86
2021/08/28 03:57:11;;;;;;;1.20;0.80;;;13.70;99.90;;;;;;5035850;28;20479;-86
2021/08/28 03:59:38;;;;;;;1.10;0.77;;;13.70;99.90;;;;;;5035549;28;20435;-86
2021/08/28 04:02:06;;;;;;;2.37;1.10;;;13.70;99.90;;;;;;5035354;28;20451;-85
2021/08/28 04:04:33;;;;;;;2.37;0.90;;;13.70;99.90;;;;;;5035588;28;20477;-86
2021/08/28 04:06:59;;;;;;;2.07;1.13;;;13.70;99.90;;;;;;5035307;28;20435;-86
2021/08/28 04:09:26;;;;;;;2.10;0.90;;;13.70;99.90;;;;;;5035799;28;20804;-86
2021/08/28 04:11:53;;;;;;;1.20;0.70;;;13.70;99.90;;;;;;5035312;28;20817;-86
2021/08/28 04:14:20;;;;;;;1.73;1.00;;;13.70;99.90;;;;;;5035318;28;21020;-86
2021/08/28 04:16:46;;;;;;;2.57;1.23;;;13.70;99.90;;;;;;5035024;28;20486;-85
2021/08/28 04:19:14;;;;;;;2.90;0.80;;;13.70;99.90;;;;;;5035613;28;20450;-85
2021/08/28 04:21:41;;;;;;;1.07;0.90;;;13.70;99.90;;;;;;5035085;28;20462;-85
2021/08/28 04:24:08;;;;;;;0.80;0.70;;;13.70;99.90;;;;;;5035076;28;20474;-85
2021/08/28 04:26:35;;;;;;;2.93;1.50;;;13.70;99.90;;;;;;5034779;28;20973;-86
2021/08/28 04:29:02;;;;;;;0.70;0.70;;;13.70;99.90;;;;;;5034777;28;20934;-85
2021/08/28 04:31:28;;;;;;;0.60;0.47;;;13.70;99.90;;;;;;5035344;28;20455;-85
2021/08/28 04:33:55;;;;;;;2.67;1.30;;;13.70;99.90;;;;;;5034629;28;20473;-85
2021/08/28 04:36:23;;;;;;;1.43;1.33;;;13.60;99.90;;;;;;5035312;28;20478;-85
2021/08/28 04:38:50;;;;;;;1.47;1.00;;;13.50;99.90;;;;;;5034685;28;20450;-85
2021/08/28 04:41:17;;;;;;;2.27;0.90;;;13.40;99.90;;;;;;5034742;28;20530;-85
2021/08/28 04:43:44;;;;;;;0.90;0.80;;;13.40;99.90;;;;;;5034538;28;20471;-85
2021/08/28 04:46:10;;;;;;;2.43;1.20;;;13.30;99.90;;;;;;5034662;28;20450;-84
2021/08/28 04:48:37;;;;;;;1.00;0.83;;;13.30;99.90;;;;;;5034458;28;20457;-84
2021/08/28 04:51:04;;;;;;;1.07;0.90;;;13.30;99.90;;;;;;5034220;28;20442;-84
2021/08/28 04:53:32;;;;;;;1.53;0.87;;;13.20;99.90;;;;;;5034231;28;20481;-81
2021/08/28 04:55:59;;;;;;;5.67;0.80;;;13.20;99.90;;;;;;5034004;28;20486;-80
2021/08/28 04:58:25;;;;;;;2.50;0.77;;;13.20;99.90;;;;;;5033841;28;20446;-80
2021/08/28 05:00:52;;;;;;;1.17;0.90;;;13.10;99.90;;;;;;5034154;28;20462;-80
2021/08/28 05:03:19;;;;;;;5.30;1.20;;;13.10;99.90;;;;;;5034034;28;20470;-80
2021/08/28 05:05:46;;;;;;;1.33;0.70;;;13.10;99.90;;;;;;5034090;28;20438;-81
2021/08/28 05:08:13;;;;;;;1.43;1.10;;;13.10;99.90;;;;;;5034021;28;20452;-81
2021/08/28 05:10:41;;;;;;;1.00;1.00;;;13.10;99.90;;;;;;5034018;28;20434;-81
2021/08/28 05:13:08;;;;;;;0.50;0.40;;;13.10;99.90;;;;;;5033662;28;20470;-81
2021/08/28 05:15:34;;;;;;;1.33;1.03;;;13.10;99.90;;;;;;5033756;28;20431;-81
2021/08/28 05:18:03;;;;;;;0.47;0.47;;;13.10;99.90;;;;;;5033867;28;20454;-81
2021/08/28 05:20:29;;;;;;;0.50;0.50;;;13.10;99.90;;;;;;5033809;28;20454;-81
2021/08/28 05:22:56;;;;;;;0.97;0.87;;;13.10;99.90;;;;;;5033401;28;20471;-81
2021/08/28 05:25:23;;;;;;;1.10;1.00;;;13.10;99.90;;;;;;5033718;28;20446;-82
2021/08/28 05:27:51;;;;;;;3.00;0.83;;;13.10;99.90;;;;;;5033682;28;20453;-82
2021/08/28 05:30:18;;;;;;;0.97;0.97;;;13.10;99.90;;;;;;5033641;28;20457;-81
2021/08/28 05:32:45;;;;;;;0.50;0.50;;;13.10;99.90;;;;;;5033561;28;20466;-82
2021/08/28 05:35:13;;;;;;;1.17;1.17;;;13.10;99.90;;;;;;5033250;28;20945;-83
2021/08/28 05:37:40;;;;;;;3.40;1.67;;;13.10;99.90;;;;;;5033227;28;20470;-83
2021/08/28 05:40:07;;;;;;;2.10;1.60;;;13.20;99.90;;;;;;5033453;28;20462;-83
2021/08/28 05:42:34;;;;;;;1.47;0.50;;;13.10;99.90;;;;;;5033021;28;20970;-82
2021/08/28 05:45:03;;;;;;;2.20;0.77;;;13.10;99.90;;;;;;5033101;28;20442;-83
2021/08/28 05:47:30;;;;;;;1.37;1.27;;;13.20;99.90;;;;;;5033442;28;20439;-83
2021/08/28 05:49:57;;;;;;;1.07;0.80;;;13.20;99.90;;;;;;5033798;28;20835;-82
2021/08/28 05:52:23;;;;;;;1.83;0.63;;;13.20;99.90;;;;;;5032570;28;20446;-81
2021/08/28 05:54:50;;;;;;;1.30;0.73;;;13.20;99.90;;;;;;5033093;28;20446;-81
2021/08/28 05:57:17;;;;;;;1.17;0.60;;;13.20;99.90;;;;;;5033313;28;20478;-81
2021/08/28 05:59:44;;;;;;;2.70;0.70;;;13.10;99.90;;;;;;5033248;28;20454;-79
2021/08/28 06:02:12;;;;;;;1.60;0.87;;;13.10;99.90;;;;;;5033132;28;20822;-80
2021/08/28 06:04:39;;;;;;;1.33;0.53;;;13.10;99.90;;;;;;5033017;28;21043;-79
2021/08/28 06:07:06;;;;;;;0.93;0.70;;;13.10;99.90;;;;;;5033223;28;20442;-80
2021/08/28 06:09:33;;;;;;;1.57;0.83;;;13.10;99.90;;;;;;5033201;28;20458;-80
2021/08/28 06:11:59;;;;;;;0.50;0.50;;;13.10;99.90;;;;;;5033172;28;20457;-80
2021/08/28 06:14:26;;;;;;;0.63;0.63;;;13.10;99.90;;;;;;5032632;28;20475;-80
2021/08/28 06:16:53;;;;;;;1.07;0.80;;;13.10;99.90;;;;;;5033023;28;20494;-80
2021/08/28 06:19:21;;;;;;;1.13;0.77;;;13.10;99.90;;;;;;5033053;28;20451;-80
2021/08/28 06:21:48;;;;;;;1.63;0.70;;;13.10;99.90;;;;;;5033087;28;20524;-80
2021/08/28 06:24:15;;;;;;;1.17;0.60;;;13.00;99.90;;;;;;5033008;28;20851;-80
2021/08/28 06:26:41;;;;;;;1.47;1.10;;;13.00;99.90;;;;;;5032863;28;20926;-81
2021/08/28 06:29:08;;;;;;;2.10;0.73;;;13.00;99.90;;;;;;5032678;28;20435;-81
2021/08/28 06:31:35;;;;;;;1.23;0.70;;;13.00;99.90;;;;;;5032729;28;20906;-81
2021/08/28 06:34:02;;;;;;;0.83;0.57;;;13.00;99.90;;;;;;5032886;28;20473;-81
2021/08/28 06:36:30;;;;;;;3.37;1.57;;;13.00;99.90;;;;;;5032959;28;20470;-82
2021/08/28 06:38:56;;;;;;;0.80;0.60;;;13.10;99.90;;;;;;5032958;28;20435;-81
2021/08/28 06:41:23;;;;;;;1.00;1.00;;;13.10;99.90;;;;;;5032970;28;20435;-81
2021/08/28 06:43:50;;;;;;;2.67;0.83;;;13.20;99.90;;;;;;5032900;28;20462;-82
2021/08/28 06:46:17;;;;;;;2.33;0.60;;;13.30;99.90;;;;;;5032942;28;20431;-82
2021/08/28 06:48:44;;;;;;;2.27;0.80;;;13.40;99.90;;;;;;5032494;28;20918;-82
2021/08/28 06:51:11;;;;;;;1.10;0.87;;;13.40;99.90;;;;;;5033453;28;20937;-83
2021/08/28 06:53:39;;;;;;;2.53;0.83;;;13.40;99.90;;;;;;5032849;28;20482;-82
2021/08/28 06:56:06;;;;;;;0.97;0.70;;;13.50;99.90;;;;;;5032579;28;20435;-82
2021/08/28 06:58:33;;;;;;;1.70;0.70;;;13.60;99.90;;;;;;5032891;28;20419;-82
2021/08/28 07:01:00;;;;;;;1.83;1.10;;;13.70;99.90;;;;;;5033113;28;20427;-82
2021/08/28 07:03:28;;;;;;;1.47;0.73;;;13.70;99.90;;;;;;5033933;28;20474;-83
2021/08/28 07:05:55;;;;;;;1.60;0.80;;;13.80;99.90;;;;;;5036374;28;20427;-83
2021/08/28 07:08:22;;;;;;;3.57;0.77;;;13.90;99.90;;;;;;5035984;28;20434;-83
2021/08/28 07:10:50;;;;;;;2.33;0.70;;;14.00;99.90;;;;;;5035941;28;20942;-83
2021/08/28 07:13:18;;;;;;;0.70;0.60;;;14.10;99.90;;;;;;5035803;28;20470;-83
2021/08/28 07:15:45;;;;;;;5.40;1.30;;;14.20;99.90;;;;;;5036167;28;20416;-84
2021/08/28 07:18:12;;;;;;;0.97;0.47;;;14.20;99.90;;;;;;5036052;28;20486;-84
2021/08/28 07:20:39;;;;;;;0.77;0.70;;;14.10;99.90;;;;;;5036042;28;20496;-84
2021/08/28 07:23:06;;;;;;;2.17;0.80;;;14.00;99.90;;;;;;5035809;28;20455;-84
2021/08/28 07:25:34;;;;;;;1.43;0.90;;;14.00;99.90;;;;;;5035849;28;20459;-85
2021/08/28 07:28:02;;;;;;;2.90;1.03;;;14.00;99.90;;;;;;5035539;28;20951;-84
2021/08/28 07:30:28;;;;;;;2.40;0.73;;;14.10;99.90;;;;;;5035853;28;20458;-84
2021/08/28 07:32:56;;;;;;;3.30;1.10;;;14.10;99.90;;;;;;5035734;28;20466;-85
2021/08/28 07:35:23;;;;;;;2.10;0.67;;;14.20;99.90;;;;;;5035888;28;20481;-85
2021/08/28 07:37:49;;;;;;;2.10;1.13;;;14.30;99.90;;;;;;5035749;28;20482;-85
2021/08/28 07:40:16;;;;;;;1.53;0.60;;;14.30;99.90;;;;;;5035539;28;20439;-86
2021/08/28 07:42:43;;;;;;;2.33;0.60;;;14.30;99.90;;;;;;5035751;28;20466;-86
2021/08/28 07:45:12;;;;;;;0.70;0.70;;;14.30;99.90;;;;;;5035876;28;20455;-85
2021/08/28 07:47:38;;;;;;;3.03;0.63;;;14.30;99.90;;;;;;5044664;28;20450;-86
2021/08/28 07:50:06;;;;;;;2.00;1.00;;;14.20;99.90;;;;;;5035783;28;20462;-87
2021/08/28 07:52:33;;;;;;;1.03;0.53;;;14.20;99.90;;;;;;5035377;28;20478;-86
2021/08/28 07:55:00;;;;;;;2.17;0.63;;;14.20;99.90;;;;;;5035871;28;20446;-86
2021/08/28 07:57:27;;;;;;;2.10;0.77;;;14.30;99.90;;;;;;5036008;28;20848;-87
2021/08/28 07:59:53;;;;;;;0.93;0.60;;;14.40;99.90;;;;;;5035403;28;20446;-86
2021/08/28 08:02:21;;;;;;;0.60;0.50;;;14.40;99.90;;;;;;5035366;28;20941;-87
2021/08/28 08:04:48;;;;;;;0.60;0.60;;;14.40;99.90;;;;;;5035321;28;20957;-87
2021/08/28 08:07:15;;;;;;;0.50;0.50;;;14.50;99.90;;;;;;5035738;28;20447;-87
2021/08/28 08:09:42;;;;;;;0.90;0.57;;;14.50;99.90;;;;;;5035563;28;20451;-87
2021/08/28 08:12:09;;;;;;;1.43;0.57;;;14.60;99.90;;;;;;5035514;28;20466;-87
2021/08/28 08:14:36;;;;;;;0.60;0.60;;;14.70;99.90;;;;;;5034468;28;20483;-80
2021/08/28 08:17:03;;;;;;;1.43;0.83;;;14.70;99.90;;;;;;5034780;28;20830;-80
2021/08/28 08:19:31;;;;;;;0.70;0.70;;;14.80;99.90;;;;;;5034971;28;20447;-80
2021/08/28 08:21:57;;;;;;;1.27;0.60;;;14.90;99.90;;;;;;5034594;28;20969;-80
2021/08/28 08:24:24;;;;;;;0.93;0.53;;;15.00;99.90;;;;;;5034651;28;20474;-80
2021/08/28 08:26:51;;;;;;;1.80;0.80;;;15.10;99.90;;;;;;5034814;28;20449;-81
2021/08/28 08:29:18;;;;;;;0.60;0.60;;;15.30;99.90;;;;;;5034837;28;20454;-80
2021/08/28 08:31:45;;;;;;;1.20;0.60;;;15.30;99.90;;;;;;5034703;28;20442;-81
2021/08/28 08:34:11;;;;;;;1.37;1.07;;;15.40;99.90;;;;;;5034388;28;20467;-81
2021/08/28 08:36:40;;;;;;;0.90;0.90;;;15.50;99.90;;;;;;5034531;28;20459;-81
2021/08/28 08:39:06;;;;;;;2.27;1.20;;;15.40;99.90;;;;;;5034653;28;20427;-81
2021/08/28 08:41:34;;;;;;;1.03;0.70;;;15.30;99.90;;;;;;5034583;28;20486;-81
2021/08/28 08:44:01;;;;;;;1.43;0.70;;;15.30;99.90;;;;;;5034344;28;20473;-81
2021/08/28 08:46:29;;;;;;;0.90;0.60;;;15.20;99.90;;;;;;5034481;28;20447;-81
2021/08/28 08:48:56;;;;;;;2.33;1.17;;;15.20;99.90;;;;;;5034151;28;20511;-81
2021/08/28 08:51:24;;;;;;;0.73;0.73;;;15.20;99.90;;;;;;5034213;28;20454;-81
2021/08/28 08:53:52;;;;;;;0.73;0.73;;;15.10;99.90;;;;;;5034241;28;20470;-81
2021/08/28 08:56:19;;;;;;;1.70;0.70;;;15.10;99.90;;;;;;5033941;28;20961;-80
2021/08/28 08:58:46;;;;;;;1.17;0.80;;;15.10;99.90;;;;;;5034134;28;20478;-81
2021/08/28 09:01:13;;;;;;;1.90;1.03;;;15.00;99.90;;;;;;5034045;28;20439;-80
2021/08/28 09:03:40;;;;;;;1.27;0.80;;;15.00;99.90;;;;;;5033808;28;20877;-81
2021/08/28 09:06:07;;;;;;;0.87;0.70;;;14.90;99.90;;;;;;5034915;28;20455;-80
2021/08/28 09:08:34;;;;;;;3.70;1.87;;;15.00;99.90;;;;;;5034047;28;20542;-81
2021/08/28 09:11:02;;;;;;;1.93;0.80;;;15.00;99.90;;;;;;5033742;28;20435;-80
2021/08/28 09:13:29;;;;;;;2.70;0.90;;;15.00;99.90;;;;;;5033376;28;20485;-81
2021/08/28 09:16:01;;;;;;;1.63;0.60;;;15.10;99.90;;;;;;5034420;28;20435;-81
2021/08/28 09:18:29;;;;;;;0.83;0.50;;;15.00;99.90;;;;;;5033529;28;21035;-80
2021/08/28 09:20:57;;;;;;;0.80;0.60;;;15.10;99.90;;;;;;5033656;28;20946;-80
2021/08/28 09:23:24;;;;;;;0.30;0.30;;;15.10;99.90;;;;;;5033695;28;20481;-81
2021/08/28 09:25:53;;;;;;;0.50;0.43;;;15.10;99.90;;;;;;5033108;28;20760;-81
2021/08/28 09:28:33;;;;;;;1.17;0.60;;;15.10;99.90;;;;;;5033590;28;20446;-81
2021/08/28 09:31:02;;;;;;;0.53;0.50;;;15.20;99.90;;;;;;5033446;28;20426;-81
2021/08/28 09:33:34;;;;;;;0.70;0.50;;;15.20;99.90;;;;;;5033510;28;20468;-81
2021/08/28 09:36:02;;;;;;;0.70;0.50;;;15.30;99.90;;;;;;5033374;28;20907;-81
2021/08/28 09:38:37;;;;;;;1.27;0.80;;;15.20;99.90;;;;;;5033116;28;20874;-80
2021/08/28 09:41:04;;;;;;;0.50;0.50;;;15.20;99.90;;;;;;5033243;28;20910;-80
2021/08/28 09:43:32;;;;;;;0.70;0.57;;;15.20;99.90;;;;;;5033101;28;20522;-81
2021/08/28 09:46:09;;;;;;;0.47;0.40;;;15.20;99.90;;;;;;5033438;28;20506;-81
2021/08/28 09:48:36;;;;;;;1.00;0.50;;;15.20;99.90;;;;;;5034070;28;20537;-80
2021/08/28 09:51:03;;;;;;;0.50;0.50;;;15.10;99.90;;;;;;5034154;28;20455;-79
2021/08/28 09:53:34;;;;;;;0.60;0.40;;;14.90;99.90;;;;;;5032981;28;21001;-79
2021/08/28 09:56:02;;;;;;;0.80;0.50;;;14.80;99.90;;;;;;5033361;28;20489;-78
2021/08/28 09:58:32;;;;;;;0.50;0.50;;;14.70;99.90;;;;;;5033277;28;20466;-78
2021/08/28 10:01:02;;;;;;;0.60;0.50;;;14.60;99.90;;;;;;5033021;28;20534;-78
2021/08/28 10:03:29;;;;;;;0.50;0.50;;;14.40;99.90;;;;;;5033204;28;20475;-78
2021/08/28 10:05:57;;;;;;;0.60;0.50;;;14.30;99.90;;;;;;5033206;28;20416;-78
2021/08/28 10:08:24;;;;;;;0.50;0.43;;;14.20;99.90;;;;;;5033523;28;20434;-78
2021/08/28 10:10:52;;;;;;;0.60;0.43;;;14.30;99.90;;;;;;5033120;28;20435;-78
2021/08/28 10:13:22;;;;;;;0.50;0.50;;;14.30;99.90;;;;;;5032939;28;20478;-77
2021/08/28 10:15:51;;;;;;;0.50;0.40;;;14.30;99.90;;;;;;5033078;28;20446;-77
2021/08/28 10:18:20;;;;;;;0.60;0.43;;;14.20;99.90;;;;;;5033103;28;20537;-77
2021/08/28 10:20:47;;;;;;;0.57;0.57;;;14.20;99.90;;;;;;5033156;28;20446;-77
2021/08/28 10:23:17;;;;;;;0.53;0.40;;;14.20;99.90;;;;;;5032951;28;20475;-78
2021/08/28 10:25:50;;;;;;;0.40;0.40;;;14.20;99.90;;;;;;5032783;28;20814;-77
2021/08/28 10:28:17;;;;;;;0.60;0.60;;;14.10;99.90;;;;;;5033120;28;20485;-77
2021/08/28 10:30:47;;;;;;;0.40;0.40;;;13.90;99.90;;;;;;5033082;28;20438;-77
2021/08/28 10:33:13;;;;;;;0.53;0.47;;;13.80;99.90;;;;;;5032995;28;20471;-77
2021/08/28 10:35:42;;;;;;;0.67;0.43;;;13.80;99.90;;;;;;5032987;28;20438;-77
2021/08/28 10:38:09;;;;;;;1.97;0.80;;;13.70;99.90;;;;;;5035243;28;20469;-77
2021/08/28 10:40:37;;;;;;;1.07;0.60;;;13.70;99.90;;;;;;5036639;28;20427;-77
2021/08/28 10:43:06;;;;;;;0.50;0.40;;;13.60;99.90;;;;;;5036434;28;20470;-78
2021/08/28 10:45:34;;;;;;;1.17;0.70;;;13.60;99.90;;;;;;5036787;28;20458;-76
2021/08/28 10:48:04;;;;;;;0.50;0.50;;;13.60;99.90;;;;;;5036601;28;20423;-76
2021/08/28 10:50:32;;;;;;;1.00;0.67;;;13.50;99.90;;;;;;5036709;28;20457;-77
2021/08/28 10:53:02;;;;;;;1.03;0.50;;;13.50;99.90;;;;;;5036546;28;20470;-77
2021/08/28 10:55:36;;;;;;;0.60;0.60;;;13.60;99.90;;;;;;5036298;28;20431;-77
2021/08/28 10:58:21;;;;;;;1.07;0.77;;;13.60;99.90;;;;;;5036165;28;20481;-77
2021/08/28 11:00:49;;;;;;;1.10;0.80;;;13.60;99.90;;;;;;5036456;28;20427;-77
2021/08/28 11:03:28;;;;;;;0.60;0.40;;;13.50;99.90;;;;;;5036373;28;20474;-77
2021/08/28 11:06:20;;;;;;;0.63;0.60;;;13.40;99.90;;;;;;5036434;28;20517;-77
2021/08/28 11:08:50;;;;;;;0.40;0.40;;;13.30;99.90;;;;;;5035887;28;20800;-77
2021/08/28 11:11:23;;;;;;;0.50;0.50;;;13.10;99.90;;;;;;5036256;28;20441;-77
2021/08/28 11:14:01;;;;;;;0.40;0.40;;;13.10;99.90;;;;;;5035872;28;20475;-76
2021/08/28 11:16:50;;;;;;;1.03;0.40;;;13.20;99.90;;;;;;5036117;28;20450;-77
2021/08/28 11:19:34;;;;;;;0.40;0.30;;;13.20;99.90;;;;;;5036090;28;20466;-77
2021/08/28 11:22:06;;;;;;;0.93;0.60;;;13.20;99.90;;;;;;5036119;28;20438;-77
2021/08/28 11:24:34;;;;;;;0.40;0.40;;;13.10;99.90;;;;;;5035967;28;20474;-77
2021/08/28 11:27:04;;;;;;;0.67;0.67;;;13.10;99.90;;;;;;5036010;28;20435;-77
2021/08/28 11:29:33;;;;;;;0.70;0.70;;;13.10;99.90;;;;;;5035697;28;20427;-76
2021/08/28 11:32:13;;;;;;;0.60;0.50;;;13.00;99.90;;;;;;5035591;28;20863;-77
2021/08/28 11:34:41;;;;;;;0.57;0.40;;;13.00;99.90;;;;;;5035759;28;20431;-77
2021/08/28 11:37:37;;;;;;;0.37;0.37;;;13.10;99.90;;;;;;5036631;28;20431;-77
2021/08/28 11:40:22;;;;;;;0.50;0.50;;;13.10;99.90;;;;;;5035645;28;20438;-77
2021/08/28 11:42:49;;;;;;;1.00;0.70;;;13.10;99.90;;;;;;5035225;28;20466;-77
2021/08/28 11:45:18;;;;;;;0.50;0.50;;;13.10;99.90;;;;;;5035490;28;20439;-77
2021/08/28 11:47:45;;;;;;;0.50;0.50;;;13.10;99.90;;;;;;5035647;28;20514;-77
2021/08/28 11:50:12;;;;;;;0.60;0.30;;;13.10;99.90;;;;;;5035229;28;20431;-77
2021/08/28 11:52:40;;;;;;;0.50;0.50;;;13.10;99.90;;;;;;5035858;28;20538;-78
2021/08/28 11:55:11;;;;;;;0.73;0.57;;;13.10;99.90;;;;;;5035282;28;20515;-77
2021/08/28 11:57:38;;;;;;;2.10;0.50;;;13.10;99.90;;;;;;5035246;28;20431;-78
2021/08/28 12:00:06;;;;;;;2.67;0.60;;;13.10;99.90;;;;;;5035250;28;20446;-78
2021/08/28 12:02:33;;;;;;;1.07;0.50;;;13.00;99.90;;;;;;5035207;28;20827;-79
2021/08/28 12:05:09;;;;;;;0.70;0.50;;;12.90;99.90;;;;;;5035308;28;20427;-79
2021/08/28 12:07:36;;;;;;;0.40;0.40;;;12.90;99.90;;;;;;5035278;28;20434;-79
2021/08/28 12:10:03;;;;;;;0.40;0.30;;;12.80;99.90;;;;;;5035263;28;20453;-80
2021/08/28 12:12:32;;;;;;;0.40;0.40;;;12.80;99.90;;;;;;5035330;28;20423;-80
2021/08/28 12:15:04;;;;;;;0.30;0.30;;;12.70;99.90;;;;;;5035289;28;20494;-80
2021/08/28 12:17:32;;;;;;;0.50;0.40;;;12.70;99.90;;;;;;5034790;28;20928;-80
2021/08/28 12:19:59;;;;;;;0.90;0.50;;;12.70;99.90;;;;;;5034776;28;20458;-80
2021/08/28 12:22:26;;;;;;;0.80;0.70;;;12.70;99.90;;;;;;5034925;28;20446;-80
2021/08/28 12:24:53;;;;;;;0.40;0.40;;;12.70;99.90;;;;;;5034709;28;20435;-80
2021/08/28 12:27:20;;;;;;;0.60;0.50;;;12.70;99.90;;;;;;5034886;28;20439;-85
2021/08/28 12:29:52;;;;;;;0.40;0.40;;;12.80;99.90;;;;;;5034898;28;20427;-84
2021/08/28 12:32:20;;;;;;;0.77;0.50;;;12.80;99.90;;;;;;5034773;28;20442;-84
2021/08/28 12:34:50;;;;;;;3.27;1.03;;;12.80;99.90;;;;;;5034733;28;20439;-82
2021/08/28 12:37:18;;;;;;;0.70;0.50;;;12.80;99.90;;;;;;5034683;28;20485;-83
2021/08/28 12:39:47;;;;;;;0.40;0.40;;;12.80;99.90;;;;;;5034468;28;20872;-83
2021/08/28 12:42:16;;;;;;;0.63;0.53;;;12.80;99.90;;;;;;5034545;28;20531;-82
2021/08/28 12:44:44;;;;;;;0.37;0.33;;;12.90;99.90;;;;;;5034325;28;20414;-82
2021/08/28 12:47:13;;;;;;;0.40;0.30;;;12.90;99.90;;;;;;5034449;28;20457;-83
2021/08/28 12:49:41;;;;;;;0.40;0.33;;;13.00;99.90;;;;;;5034837;28;20442;-80
2021/08/28 12:52:09;;;;;;;0.70;0.30;;;12.90;99.90;;;;;;5035052;28;20446;-81
2021/08/28 12:54:37;;;;;;;0.80;0.40;;;13.00;99.90;;;;;;5034494;28;20424;-82